sensor_id;sensor_type;location;lat;lon;timestamp;P1;durP1;ratioP1;P2;durP2;ratioP2
21494;SDS011;10909;53.590;10.054;2022-11-20T00:00:08;3.33;;;2.27;;
21494;SDS011;10909;53.590;10.054;2022-11-20T00:02:35;2.53;;;2.00;;
21494;SDS011;10909;53.590;10.054;2022-11-20T00:05:03;2.30;;;2.10;;
21494;SDS011;10909;53.590;10.054;2022-11-20T00:07:31;2.20;;;1.80;;
21494;SDS011;10909;53.590;10.054;2022-11-20T00:09:57;2.27;;;1.90;;
21494;SDS011;10909;53.590;10.054;2022-11-20T00:12:22;2.20;;;2.00;;
21494;SDS011;10909;53.590;10.054;2022-11-20T00:14:48;2.07;;;1.83;;
21494;SDS011;10909;53.590;10.054;2022-11-20T00:17:14;2.07;;;1.80;;
21494;SDS011;10909;53.590;10.054;2022-11-20T00:19:41;2.20;;;2.00;;
21494;SDS011;10909;53.590;10.054;2022-11-20T00:22:08;2.47;;;2.00;;
21494;SDS011;10909;53.590;10.054;2022-11-20T00:24:41;2.53;;;1.90;;
21494;SDS011;10909;53.590;10.054;2022-11-20T00:27:07;2.97;;;2.10;;
21494;SDS011;10909;53.590;10.054;2022-11-20T00:29:34;2.90;;;2.20;;
21494;SDS011;10909;53.590;10.054;2022-11-20T00:32:05;2.60;;;2.13;;
21494;SDS011;10909;53.590;10.054;2022-11-20T00:34:30;2.30;;;1.90;;
21494;SDS011;10909;53.590;10.054;2022-11-20T00:36:57;3.17;;;1.90;;
21494;SDS011;10909;53.590;10.054;2022-11-20T00:39:23;4.70;;;2.20;;
21494;SDS011;10909;53.590;10.054;2022-11-20T00:41:49;2.30;;;1.90;;
21494;SDS011;10909;53.590;10.054;2022-11-20T00:44:17;2.00;;;1.80;;
21494;SDS011;10909;53.590;10.054;2022-11-20T00:46:43;2.63;;;1.80;;
21494;SDS011;10909;53.590;10.054;2022-11-20T00:49:08;2.90;;;1.90;;
21494;SDS011;10909;53.590;10.054;2022-11-20T00:51:34;2.37;;;1.90;;
21494;SDS011;10909;53.590;10.054;2022-11-20T00:54:00;3.13;;;2.07;;
21494;SDS011;10909;53.590;10.054;2022-11-20T00:56:27;2.30;;;1.70;;
21494;SDS011;10909;53.590;10.054;2022-11-20T00:58:52;3.27;;;1.93;;
21494;SDS011;10909;53.590;10.054;2022-11-20T01:01:20;2.63;;;2.20;;
21494;SDS011;10909;53.590;10.054;2022-11-20T01:03:50;2.37;;;2.00;;
21494;SDS011;10909;53.590;10.054;2022-11-20T01:06:18;2.63;;;1.73;;
21494;SDS011;10909;53.590;10.054;2022-11-20T01:08:44;4.27;;;2.00;;
21494;SDS011;10909;53.590;10.054;2022-11-20T01:11:13;1.90;;;1.70;;
21494;SDS011;10909;53.590;10.054;2022-11-20T01:13:43;2.47;;;1.83;;
21494;SDS011;10909;53.590;10.054;2022-11-20T01:18:48;1.60;;;1.50;;
21494;SDS011;10909;53.590;10.054;2022-11-20T01:21:20;3.07;;;1.60;;
21494;SDS011;10909;53.590;10.054;2022-11-20T01:23:49;2.10;;;1.90;;
21494;SDS011;10909;53.590;10.054;2022-11-20T01:26:17;2.67;;;2.10;;
21494;SDS011;10909;53.590;10.054;2022-11-20T01:28:44;1.97;;;1.60;;
21494;SDS011;10909;53.590;10.054;2022-11-20T01:31:19;2.17;;;1.93;;
21494;SDS011;10909;53.590;10.054;2022-11-20T01:34:08;2.63;;;1.90;;
21494;SDS011;10909;53.590;10.054;2022-11-20T01:36:38;2.30;;;1.77;;
21494;SDS011;10909;53.590;10.054;2022-11-20T01:39:05;2.63;;;1.90;;
21494;SDS011;10909;53.590;10.054;2022-11-20T01:41:33;1.93;;;1.67;;
21494;SDS011;10909;53.590;10.054;2022-11-20T01:44:20;2.87;;;2.00;;
21494;SDS011;10909;53.590;10.054;2022-11-20T01:49:33;2.30;;;1.70;;
21494;SDS011;10909;53.590;10.054;2022-11-20T01:52:07;3.20;;;2.10;;
21494;SDS011;10909;53.590;10.054;2022-11-20T01:54:42;2.13;;;1.87;;
21494;SDS011;10909;53.590;10.054;2022-11-20T01:57:13;1.70;;;1.60;;
21494;SDS011;10909;53.590;10.054;2022-11-20T01:59:41;2.07;;;1.60;;
21494;SDS011;10909;53.590;10.054;2022-11-20T02:02:13;2.00;;;1.80;;
21494;SDS011;10909;53.590;10.054;2022-11-20T02:04:39;2.20;;;1.80;;
21494;SDS011;10909;53.590;10.054;2022-11-20T02:07:05;2.03;;;1.83;;
21494;SDS011;10909;53.590;10.054;2022-11-20T02:09:32;1.73;;;1.63;;
21494;SDS011;10909;53.590;10.054;2022-11-20T02:11:58;2.37;;;1.77;;
21494;SDS011;10909;53.590;10.054;2022-11-20T02:14:24;2.03;;;1.83;;
21494;SDS011;10909;53.590;10.054;2022-11-20T02:16:51;2.07;;;1.80;;
21494;SDS011;10909;53.590;10.054;2022-11-20T02:19:28;2.83;;;2.00;;
21494;SDS011;10909;53.590;10.054;2022-11-20T02:24:35;4.33;;;2.23;;
21494;SDS011;10909;53.590;10.054;2022-11-20T02:27:14;2.53;;;1.80;;
21494;SDS011;10909;53.590;10.054;2022-11-20T02:29:51;2.20;;;2.00;;
21494;SDS011;10909;53.590;10.054;2022-11-20T02:32:27;2.27;;;2.00;;
21494;SDS011;10909;53.590;10.054;2022-11-20T02:34:56;2.33;;;1.70;;
21494;SDS011;10909;53.590;10.054;2022-11-20T02:37:22;2.60;;;1.80;;
21494;SDS011;10909;53.590;10.054;2022-11-20T02:39:54;2.43;;;1.90;;
21494;SDS011;10909;53.590;10.054;2022-11-20T02:42:20;2.13;;;1.67;;
21494;SDS011;10909;53.590;10.054;2022-11-20T02:44:46;2.37;;;1.80;;
21494;SDS011;10909;53.590;10.054;2022-11-20T02:47:12;2.13;;;1.93;;
21494;SDS011;10909;53.590;10.054;2022-11-20T02:49:37;3.30;;;2.10;;
21494;SDS011;10909;53.590;10.054;2022-11-20T02:52:03;3.27;;;1.90;;
21494;SDS011;10909;53.590;10.054;2022-11-20T02:54:32;1.97;;;1.70;;
21494;SDS011;10909;53.590;10.054;2022-11-20T02:56:59;2.33;;;1.80;;
21494;SDS011;10909;53.590;10.054;2022-11-20T02:59:24;2.27;;;2.00;;
21494;SDS011;10909;53.590;10.054;2022-11-20T03:01:50;2.67;;;1.80;;
21494;SDS011;10909;53.590;10.054;2022-11-20T03:04:20;2.00;;;1.80;;
21494;SDS011;10909;53.590;10.054;2022-11-20T03:06:45;3.30;;;2.00;;
21494;SDS011;10909;53.590;10.054;2022-11-20T03:09:14;2.27;;;2.07;;
21494;SDS011;10909;53.590;10.054;2022-11-20T03:11:49;1.90;;;1.70;;
21494;SDS011;10909;53.590;10.054;2022-11-20T03:14:17;2.37;;;1.90;;
21494;SDS011;10909;53.590;10.054;2022-11-20T03:16:55;3.37;;;1.90;;
21494;SDS011;10909;53.590;10.054;2022-11-20T03:19:26;2.37;;;2.10;;
21494;SDS011;10909;53.590;10.054;2022-11-20T03:21:52;1.70;;;1.60;;
21494;SDS011;10909;53.590;10.054;2022-11-20T03:24:17;1.83;;;1.63;;
21494;SDS011;10909;53.590;10.054;2022-11-20T03:26:46;2.67;;;1.87;;
21494;SDS011;10909;53.590;10.054;2022-11-20T03:29:11;2.10;;;1.77;;
21494;SDS011;10909;53.590;10.054;2022-11-20T03:31:39;2.17;;;1.83;;
21494;SDS011;10909;53.590;10.054;2022-11-20T03:34:05;1.30;;;1.20;;
21494;SDS011;10909;53.590;10.054;2022-11-20T03:36:31;2.53;;;1.63;;
21494;SDS011;10909;53.590;10.054;2022-11-20T03:38:57;1.80;;;1.70;;
21494;SDS011;10909;53.590;10.054;2022-11-20T03:41:24;2.00;;;1.60;;
21494;SDS011;10909;53.590;10.054;2022-11-20T03:43:54;2.13;;;1.80;;
21494;SDS011;10909;53.590;10.054;2022-11-20T03:46:22;2.00;;;1.60;;
21494;SDS011;10909;53.590;10.054;2022-11-20T03:48:50;2.27;;;1.90;;
21494;SDS011;10909;53.590;10.054;2022-11-20T03:53:49;2.30;;;1.80;;
21494;SDS011;10909;53.590;10.054;2022-11-20T03:56:18;2.33;;;1.60;;
21494;SDS011;10909;53.590;10.054;2022-11-20T03:58:45;2.30;;;1.70;;
21494;SDS011;10909;53.590;10.054;2022-11-20T04:01:14;2.83;;;1.90;;
21494;SDS011;10909;53.590;10.054;2022-11-20T04:03:42;2.33;;;1.67;;
21494;SDS011;10909;53.590;10.054;2022-11-20T04:06:10;1.70;;;1.60;;
21494;SDS011;10909;53.590;10.054;2022-11-20T04:08:43;2.17;;;1.80;;
21494;SDS011;10909;53.590;10.054;2022-11-20T04:13:35;1.73;;;1.50;;
21494;SDS011;10909;53.590;10.054;2022-11-20T04:16:01;2.55;;;1.98;;
21494;SDS011;10909;53.590;10.054;2022-11-20T04:18:27;1.93;;;1.60;;
21494;SDS011;10909;53.590;10.054;2022-11-20T04:20:55;1.80;;;1.50;;
21494;SDS011;10909;53.590;10.054;2022-11-20T04:23:22;2.60;;;1.80;;
21494;SDS011;10909;53.590;10.054;2022-11-20T04:25:49;1.57;;;1.47;;
21494;SDS011;10909;53.590;10.054;2022-11-20T04:28:15;2.47;;;1.90;;
21494;SDS011;10909;53.590;10.054;2022-11-20T04:30:41;3.83;;;1.70;;
21494;SDS011;10909;53.590;10.054;2022-11-20T04:33:07;2.60;;;1.70;;
21494;SDS011;10909;53.590;10.054;2022-11-20T04:35:36;2.30;;;1.63;;
21494;SDS011;10909;53.590;10.054;2022-11-20T04:38:02;2.23;;;1.60;;
21494;SDS011;10909;53.590;10.054;2022-11-20T04:40:29;2.23;;;1.60;;
21494;SDS011;10909;53.590;10.054;2022-11-20T04:42:55;2.33;;;1.70;;
21494;SDS011;10909;53.590;10.054;2022-11-20T04:45:21;2.80;;;1.70;;
21494;SDS011;10909;53.590;10.054;2022-11-20T04:47:47;3.20;;;1.90;;
21494;SDS011;10909;53.590;10.054;2022-11-20T04:50:13;1.93;;;1.80;;
21494;SDS011;10909;53.590;10.054;2022-11-20T04:52:40;2.17;;;1.90;;
21494;SDS011;10909;53.590;10.054;2022-11-20T04:55:06;2.37;;;1.90;;
21494;SDS011;10909;53.590;10.054;2022-11-20T04:57:32;2.00;;;1.80;;
21494;SDS011;10909;53.590;10.054;2022-11-20T05:00:01;2.00;;;1.80;;
21494;SDS011;10909;53.590;10.054;2022-11-20T05:02:27;2.00;;;1.77;;
21494;SDS011;10909;53.590;10.054;2022-11-20T05:04:53;2.10;;;1.90;;
21494;SDS011;10909;53.590;10.054;2022-11-20T05:07:18;1.93;;;1.70;;
21494;SDS011;10909;53.590;10.054;2022-11-20T05:09:44;2.47;;;2.00;;
21494;SDS011;10909;53.590;10.054;2022-11-20T05:12:11;1.83;;;1.73;;
21494;SDS011;10909;53.590;10.054;2022-11-20T05:14:37;2.23;;;1.70;;
21494;SDS011;10909;53.590;10.054;2022-11-20T05:17:03;2.50;;;1.70;;
21494;SDS011;10909;53.590;10.054;2022-11-20T05:19:28;2.70;;;1.53;;
21494;SDS011;10909;53.590;10.054;2022-11-20T05:21:54;2.00;;;1.80;;
21494;SDS011;10909;53.590;10.054;2022-11-20T05:24:20;2.23;;;1.70;;
21494;SDS011;10909;53.590;10.054;2022-11-20T05:26:47;2.60;;;2.17;;
21494;SDS011;10909;53.590;10.054;2022-11-20T05:29:14;2.63;;;1.97;;
21494;SDS011;10909;53.590;10.054;2022-11-20T05:31:40;1.90;;;1.70;;
21494;SDS011;10909;53.590;10.054;2022-11-20T05:34:06;2.23;;;1.93;;
21494;SDS011;10909;53.590;10.054;2022-11-20T05:36:33;2.10;;;1.87;;
21494;SDS011;10909;53.590;10.054;2022-11-20T05:38:58;2.47;;;1.93;;
21494;SDS011;10909;53.590;10.054;2022-11-20T05:41:24;2.20;;;1.77;;
21494;SDS011;10909;53.590;10.054;2022-11-20T05:43:51;2.23;;;1.90;;
21494;SDS011;10909;53.590;10.054;2022-11-20T05:46:18;3.57;;;2.07;;
21494;SDS011;10909;53.590;10.054;2022-11-20T05:48:46;2.13;;;1.80;;
21494;SDS011;10909;53.590;10.054;2022-11-20T05:51:16;2.90;;;2.27;;
21494;SDS011;10909;53.590;10.054;2022-11-20T05:53:43;2.47;;;2.00;;
21494;SDS011;10909;53.590;10.054;2022-11-20T05:56:10;2.10;;;1.90;;
21494;SDS011;10909;53.590;10.054;2022-11-20T05:58:38;2.27;;;2.07;;
21494;SDS011;10909;53.590;10.054;2022-11-20T06:01:26;2.63;;;2.10;;
21494;SDS011;10909;53.590;10.054;2022-11-20T06:03:51;2.80;;;2.30;;
21494;SDS011;10909;53.590;10.054;2022-11-20T06:06:18;2.37;;;2.13;;
21494;SDS011;10909;53.590;10.054;2022-11-20T06:08:44;2.03;;;1.83;;
21494;SDS011;10909;53.590;10.054;2022-11-20T06:11:11;2.33;;;2.03;;
21494;SDS011;10909;53.590;10.054;2022-11-20T06:13:38;2.50;;;1.77;;
21494;SDS011;10909;53.590;10.054;2022-11-20T06:16:05;3.47;;;2.23;;
21494;SDS011;10909;53.590;10.054;2022-11-20T06:18:32;2.60;;;2.20;;
21494;SDS011;10909;53.590;10.054;2022-11-20T06:21:11;2.90;;;2.50;;
21494;SDS011;10909;53.590;10.054;2022-11-20T06:23:43;3.10;;;2.47;;
21494;SDS011;10909;53.590;10.054;2022-11-20T06:26:10;4.23;;;2.90;;
21494;SDS011;10909;53.590;10.054;2022-11-20T06:28:38;3.60;;;2.70;;
21494;SDS011;10909;53.590;10.054;2022-11-20T06:31:05;3.47;;;3.10;;
21494;SDS011;10909;53.590;10.054;2022-11-20T06:33:33;3.00;;;2.70;;
21494;SDS011;10909;53.590;10.054;2022-11-20T06:36:00;4.43;;;2.77;;
21494;SDS011;10909;53.590;10.054;2022-11-20T06:38:27;3.53;;;3.23;;
21494;SDS011;10909;53.590;10.054;2022-11-20T06:40:55;2.67;;;2.47;;
21494;SDS011;10909;53.590;10.054;2022-11-20T06:43:21;3.97;;;3.57;;
21494;SDS011;10909;53.590;10.054;2022-11-20T06:45:52;4.67;;;3.50;;
21494;SDS011;10909;53.590;10.054;2022-11-20T06:48:19;4.60;;;3.40;;
21494;SDS011;10909;53.590;10.054;2022-11-20T06:50:45;4.10;;;3.60;;
21494;SDS011;10909;53.590;10.054;2022-11-20T06:53:12;4.37;;;3.60;;
21494;SDS011;10909;53.590;10.054;2022-11-20T06:55:41;3.97;;;3.53;;
21494;SDS011;10909;53.590;10.054;2022-11-20T06:58:08;4.43;;;3.37;;
21494;SDS011;10909;53.590;10.054;2022-11-20T07:00:34;3.50;;;3.20;;
21494;SDS011;10909;53.590;10.054;2022-11-20T07:03:03;3.93;;;3.30;;
21494;SDS011;10909;53.590;10.054;2022-11-20T07:05:30;3.83;;;2.97;;
21494;SDS011;10909;53.590;10.054;2022-11-20T07:07:56;3.67;;;2.87;;
21494;SDS011;10909;53.590;10.054;2022-11-20T07:10:23;2.90;;;2.60;;
21494;SDS011;10909;53.590;10.054;2022-11-20T07:12:50;3.53;;;3.23;;
21494;SDS011;10909;53.590;10.054;2022-11-20T07:15:18;3.53;;;2.70;;
21494;SDS011;10909;53.590;10.054;2022-11-20T07:17:45;3.10;;;2.30;;
21494;SDS011;10909;53.590;10.054;2022-11-20T07:20:13;3.03;;;2.57;;
21494;SDS011;10909;53.590;10.054;2022-11-20T07:22:40;2.60;;;2.40;;
21494;SDS011;10909;53.590;10.054;2022-11-20T07:25:06;3.40;;;2.60;;
21494;SDS011;10909;53.590;10.054;2022-11-20T07:27:34;2.87;;;2.20;;
21494;SDS011;10909;53.590;10.054;2022-11-20T07:30:01;3.67;;;2.40;;
21494;SDS011;10909;53.590;10.054;2022-11-20T07:32:27;2.63;;;2.43;;
21494;SDS011;10909;53.590;10.054;2022-11-20T07:34:56;2.97;;;2.40;;
21494;SDS011;10909;53.590;10.054;2022-11-20T07:37:21;2.97;;;2.60;;
21494;SDS011;10909;53.590;10.054;2022-11-20T07:39:47;2.60;;;2.40;;
21494;SDS011;10909;53.590;10.054;2022-11-20T07:42:13;2.60;;;2.30;;
21494;SDS011;10909;53.590;10.054;2022-11-20T07:44:38;4.83;;;2.43;;
21494;SDS011;10909;53.590;10.054;2022-11-20T07:47:04;3.70;;;2.57;;
21494;SDS011;10909;53.590;10.054;2022-11-20T07:49:30;2.63;;;2.20;;
21494;SDS011;10909;53.590;10.054;2022-11-20T07:51:55;2.30;;;2.10;;
21494;SDS011;10909;53.590;10.054;2022-11-20T07:54:21;2.50;;;2.23;;
21494;SDS011;10909;53.590;10.054;2022-11-20T07:56:47;2.83;;;2.20;;
21494;SDS011;10909;53.590;10.054;2022-11-20T07:59:13;2.30;;;2.03;;
21494;SDS011;10909;53.590;10.054;2022-11-20T08:01:41;2.53;;;2.13;;
21494;SDS011;10909;53.590;10.054;2022-11-20T08:04:07;2.67;;;2.40;;
21494;SDS011;10909;53.590;10.054;2022-11-20T08:06:34;2.20;;;2.00;;
21494;SDS011;10909;53.590;10.054;2022-11-20T08:09:00;2.70;;;2.50;;
21494;SDS011;10909;53.590;10.054;2022-11-20T08:11:26;2.97;;;2.60;;
21494;SDS011;10909;53.590;10.054;2022-11-20T08:14:11;2.87;;;2.57;;
21494;SDS011;10909;53.590;10.054;2022-11-20T08:16:41;2.17;;;1.90;;
21494;SDS011;10909;53.590;10.054;2022-11-20T08:19:12;2.60;;;2.27;;
21494;SDS011;10909;53.590;10.054;2022-11-20T08:21:39;2.50;;;2.27;;
21494;SDS011;10909;53.590;10.054;2022-11-20T08:24:05;2.77;;;2.40;;
21494;SDS011;10909;53.590;10.054;2022-11-20T08:26:32;2.50;;;2.20;;
21494;SDS011;10909;53.590;10.054;2022-11-20T08:28:58;2.23;;;2.07;;
21494;SDS011;10909;53.590;10.054;2022-11-20T08:31:25;2.23;;;2.03;;
21494;SDS011;10909;53.590;10.054;2022-11-20T08:33:51;2.40;;;2.20;;
21494;SDS011;10909;53.590;10.054;2022-11-20T08:36:19;2.40;;;2.20;;
21494;SDS011;10909;53.590;10.054;2022-11-20T08:38:50;2.73;;;1.90;;
21494;SDS011;10909;53.590;10.054;2022-11-20T08:41:17;2.40;;;2.20;;
21494;SDS011;10909;53.590;10.054;2022-11-20T08:43:51;2.10;;;1.90;;
21494;SDS011;10909;53.590;10.054;2022-11-20T08:46:36;2.63;;;1.80;;
21494;SDS011;10909;53.590;10.054;2022-11-20T08:49:03;2.10;;;1.90;;
21494;SDS011;10909;53.590;10.054;2022-11-20T08:51:30;1.73;;;1.63;;
21494;SDS011;10909;53.590;10.054;2022-11-20T08:53:58;1.80;;;1.70;;
21494;SDS011;10909;53.590;10.054;2022-11-20T08:56:33;2.17;;;1.83;;
21494;SDS011;10909;53.590;10.054;2022-11-20T08:59:01;1.70;;;1.60;;
21494;SDS011;10909;53.590;10.054;2022-11-20T09:01:27;2.10;;;1.90;;
21494;SDS011;10909;53.590;10.054;2022-11-20T09:03:57;1.63;;;1.53;;
21494;SDS011;10909;53.590;10.054;2022-11-20T09:06:22;1.77;;;1.67;;
21494;SDS011;10909;53.590;10.054;2022-11-20T09:08:51;2.07;;;1.87;;
21494;SDS011;10909;53.590;10.054;2022-11-20T09:11:20;1.80;;;1.70;;
21494;SDS011;10909;53.590;10.054;2022-11-20T09:13:46;1.80;;;1.70;;
21494;SDS011;10909;53.590;10.054;2022-11-20T09:16:12;2.07;;;1.50;;
21494;SDS011;10909;53.590;10.054;2022-11-20T09:18:38;2.00;;;1.80;;
21494;SDS011;10909;53.590;10.054;2022-11-20T09:21:06;1.87;;;1.67;;
21494;SDS011;10909;53.590;10.054;2022-11-20T09:23:37;1.70;;;1.60;;
21494;SDS011;10909;53.590;10.054;2022-11-20T09:26:13;2.00;;;1.70;;
21494;SDS011;10909;53.590;10.054;2022-11-20T09:28:40;2.13;;;1.87;;
21494;SDS011;10909;53.590;10.054;2022-11-20T09:31:19;1.97;;;1.77;;
21494;SDS011;10909;53.590;10.054;2022-11-20T09:33:49;2.13;;;1.90;;
21494;SDS011;10909;53.590;10.054;2022-11-20T09:36:31;1.87;;;1.63;;
21494;SDS011;10909;53.590;10.054;2022-11-20T09:38:58;2.97;;;1.80;;
21494;SDS011;10909;53.590;10.054;2022-11-20T09:44:04;2.00;;;1.73;;
21494;SDS011;10909;53.590;10.054;2022-11-20T09:46:55;1.73;;;1.63;;
21494;SDS011;10909;53.590;10.054;2022-11-20T09:52:30;3.50;;;2.10;;
21494;SDS011;10909;53.590;10.054;2022-11-20T09:55:16;2.10;;;1.90;;
21494;SDS011;10909;53.590;10.054;2022-11-20T09:57:46;1.93;;;1.83;;
21494;SDS011;10909;53.590;10.054;2022-11-20T10:00:17;2.20;;;2.00;;
21494;SDS011;10909;53.590;10.054;2022-11-20T10:03:06;2.60;;;2.07;;
21494;SDS011;10909;53.590;10.054;2022-11-20T10:08:25;2.10;;;1.90;;
21494;SDS011;10909;53.590;10.054;2022-11-20T10:24:26;2.50;;;1.77;;
21494;SDS011;10909;53.590;10.054;2022-11-20T10:30:03;2.17;;;1.97;;
21494;SDS011;10909;53.590;10.054;2022-11-20T10:32:46;2.10;;;1.83;;
21494;SDS011;10909;53.590;10.054;2022-11-20T10:37:51;2.10;;;1.90;;
21494;SDS011;10909;53.590;10.054;2022-11-20T10:40:28;2.40;;;2.00;;
21494;SDS011;10909;53.590;10.054;2022-11-20T10:43:15;1.70;;;1.50;;
21494;SDS011;10909;53.590;10.054;2022-11-20T10:46:01;1.80;;;1.70;;
21494;SDS011;10909;53.590;10.054;2022-11-20T10:48:33;1.70;;;1.60;;
21494;SDS011;10909;53.590;10.054;2022-11-20T10:53:54;2.00;;;1.80;;
21494;SDS011;10909;53.590;10.054;2022-11-20T11:02:16;1.90;;;1.73;;
21494;SDS011;10909;53.590;10.054;2022-11-20T11:04:53;2.47;;;1.80;;
21494;SDS011;10909;53.590;10.054;2022-11-20T11:07:23;1.73;;;1.63;;
21494;SDS011;10909;53.590;10.054;2022-11-20T11:09:55;1.67;;;1.57;;
21494;SDS011;10909;53.590;10.054;2022-11-20T11:12:27;1.90;;;1.80;;
21494;SDS011;10909;53.590;10.054;2022-11-20T11:15:11;1.60;;;1.50;;
21494;SDS011;10909;53.590;10.054;2022-11-20T11:17:55;1.97;;;1.80;;
21494;SDS011;10909;53.590;10.054;2022-11-20T11:20:24;1.90;;;1.80;;
21494;SDS011;10909;53.590;10.054;2022-11-20T11:22:52;1.77;;;1.60;;
21494;SDS011;10909;53.590;10.054;2022-11-20T11:28:03;1.90;;;1.80;;
21494;SDS011;10909;53.590;10.054;2022-11-20T11:30:46;1.77;;;1.50;;
21494;SDS011;10909;53.590;10.054;2022-11-20T11:33:18;1.80;;;1.60;;
21494;SDS011;10909;53.590;10.054;2022-11-20T11:36:24;1.80;;;1.63;;
21494;SDS011;10909;53.590;10.054;2022-11-20T11:38:54;1.70;;;1.60;;
21494;SDS011;10909;53.590;10.054;2022-11-20T11:41:24;2.10;;;1.47;;
21494;SDS011;10909;53.590;10.054;2022-11-20T11:47:10;1.57;;;1.47;;
21494;SDS011;10909;53.590;10.054;2022-11-20T11:49:43;1.50;;;1.20;;
21494;SDS011;10909;53.590;10.054;2022-11-20T11:52:17;1.40;;;1.30;;
21494;SDS011;10909;53.590;10.054;2022-11-20T11:54:53;1.73;;;1.33;;
21494;SDS011;10909;53.590;10.054;2022-11-20T12:00:26;1.60;;;1.40;;
21494;SDS011;10909;53.590;10.054;2022-11-20T12:02:57;1.33;;;1.20;;
21494;SDS011;10909;53.590;10.054;2022-11-20T12:05:34;1.53;;;1.43;;
21494;SDS011;10909;53.590;10.054;2022-11-20T12:08:23;1.40;;;1.30;;
21494;SDS011;10909;53.590;10.054;2022-11-20T12:11:04;1.40;;;1.30;;
21494;SDS011;10909;53.590;10.054;2022-11-20T12:13:46;1.70;;;1.60;;
21494;SDS011;10909;53.590;10.054;2022-11-20T12:16:19;1.50;;;1.40;;
21494;SDS011;10909;53.590;10.054;2022-11-20T12:18:46;1.70;;;1.30;;
21494;SDS011;10909;53.590;10.054;2022-11-20T12:30:09;1.20;;;1.10;;
21494;SDS011;10909;53.590;10.054;2022-11-20T12:38:08;2.53;;;1.33;;
21494;SDS011;10909;53.590;10.054;2022-11-20T12:47:34;1.77;;;1.63;;
21494;SDS011;10909;53.590;10.054;2022-11-20T12:50:19;1.40;;;1.30;;
21494;SDS011;10909;53.590;10.054;2022-11-20T13:04:12;1.33;;;1.23;;
21494;SDS011;10909;53.590;10.054;2022-11-20T13:06:57;1.40;;;1.30;;
21494;SDS011;10909;53.590;10.054;2022-11-20T13:09:25;1.50;;;1.40;;
21494;SDS011;10909;53.590;10.054;2022-11-20T13:12:06;2.07;;;1.60;;
21494;SDS011;10909;53.590;10.054;2022-11-20T13:14:39;2.30;;;1.30;;
21494;SDS011;10909;53.590;10.054;2022-11-20T13:17:20;1.40;;;1.30;;
21494;SDS011;10909;53.590;10.054;2022-11-20T13:19:55;1.50;;;1.40;;
21494;SDS011;10909;53.590;10.054;2022-11-20T13:22:27;1.40;;;1.30;;
21494;SDS011;10909;53.590;10.054;2022-11-20T13:25:10;1.57;;;1.47;;
21494;SDS011;10909;53.590;10.054;2022-11-20T13:27:49;1.50;;;1.40;;
21494;SDS011;10909;53.590;10.054;2022-11-20T13:30:18;1.40;;;1.30;;
21494;SDS011;10909;53.590;10.054;2022-11-20T13:36:03;1.40;;;1.30;;
21494;SDS011;10909;53.590;10.054;2022-11-20T13:38:49;1.63;;;1.50;;
21494;SDS011;10909;53.590;10.054;2022-11-20T13:41:26;1.37;;;1.27;;
21494;SDS011;10909;53.590;10.054;2022-11-20T13:44:08;1.13;;;1.03;;
21494;SDS011;10909;53.590;10.054;2022-11-20T13:46:43;1.40;;;1.30;;
21494;SDS011;10909;53.590;10.054;2022-11-20T13:49:25;1.70;;;1.40;;
21494;SDS011;10909;53.590;10.054;2022-11-20T13:52:27;1.50;;;1.40;;
21494;SDS011;10909;53.590;10.054;2022-11-20T13:57:58;1.53;;;1.43;;
21494;SDS011;10909;53.590;10.054;2022-11-20T14:00:41;1.30;;;1.20;;
21494;SDS011;10909;53.590;10.054;2022-11-20T14:03:32;1.50;;;1.40;;
21494;SDS011;10909;53.590;10.054;2022-11-20T14:06:14;1.50;;;1.40;;
21494;SDS011;10909;53.590;10.054;2022-11-20T14:08:52;1.53;;;1.43;;
21494;SDS011;10909;53.590;10.054;2022-11-20T14:11:19;1.40;;;1.30;;
21494;SDS011;10909;53.590;10.054;2022-11-20T14:14:20;1.57;;;1.40;;
21494;SDS011;10909;53.590;10.054;2022-11-20T14:16:42;1.93;;;1.53;;
21494;SDS011;10909;53.590;10.054;2022-11-20T14:24:40;1.70;;;1.33;;
21494;SDS011;10909;53.590;10.054;2022-11-20T14:27:18;1.60;;;1.50;;
21494;SDS011;10909;53.590;10.054;2022-11-20T14:29:53;2.57;;;1.50;;
21494;SDS011;10909;53.590;10.054;2022-11-20T14:32:21;2.03;;;1.63;;
21494;SDS011;10909;53.590;10.054;2022-11-20T14:34:54;2.27;;;1.57;;
21494;SDS011;10909;53.590;10.054;2022-11-20T14:37:26;2.13;;;1.70;;
21494;SDS011;10909;53.590;10.054;2022-11-20T14:39:58;3.00;;;1.80;;
21494;SDS011;10909;53.590;10.054;2022-11-20T14:42:26;2.60;;;2.17;;
21494;SDS011;10909;53.590;10.054;2022-11-20T14:44:56;3.53;;;2.10;;
21494;SDS011;10909;53.590;10.054;2022-11-20T14:47:25;2.17;;;1.77;;
21494;SDS011;10909;53.590;10.054;2022-11-20T14:49:57;2.70;;;1.83;;
21494;SDS011;10909;53.590;10.054;2022-11-20T14:52:26;1.50;;;1.40;;
21494;SDS011;10909;53.590;10.054;2022-11-20T14:54:55;1.80;;;1.43;;
21494;SDS011;10909;53.590;10.054;2022-11-20T14:57:31;1.40;;;1.30;;
21494;SDS011;10909;53.590;10.054;2022-11-20T15:02:33;1.60;;;1.50;;
21494;SDS011;10909;53.590;10.054;2022-11-20T15:05:01;1.53;;;1.43;;
21494;SDS011;10909;53.590;10.054;2022-11-20T15:07:34;1.70;;;1.60;;
21494;SDS011;10909;53.590;10.054;2022-11-20T15:12:37;2.03;;;1.50;;
21494;SDS011;10909;53.590;10.054;2022-11-20T15:15:10;1.70;;;1.40;;
21494;SDS011;10909;53.590;10.054;2022-11-20T15:17:41;3.10;;;1.50;;
21494;SDS011;10909;53.590;10.054;2022-11-20T15:20:12;2.10;;;1.60;;
21494;SDS011;10909;53.590;10.054;2022-11-20T15:22:41;2.50;;;1.50;;
21494;SDS011;10909;53.590;10.054;2022-11-20T15:25:13;1.63;;;1.53;;
21494;SDS011;10909;53.590;10.054;2022-11-20T15:27:42;1.60;;;1.50;;
21494;SDS011;10909;53.590;10.054;2022-11-20T15:32:45;1.73;;;1.63;;
21494;SDS011;10909;53.590;10.054;2022-11-20T15:35:11;1.70;;;1.57;;
21494;SDS011;10909;53.590;10.054;2022-11-20T15:37:40;2.30;;;1.83;;
21494;SDS011;10909;53.590;10.054;2022-11-20T15:40:07;2.00;;;1.70;;
21494;SDS011;10909;53.590;10.054;2022-11-20T15:42:36;2.00;;;1.80;;
21494;SDS011;10909;53.590;10.054;2022-11-20T15:45:26;1.70;;;1.60;;
21494;SDS011;10909;53.590;10.054;2022-11-20T15:47:57;2.47;;;1.80;;
21494;SDS011;10909;53.590;10.054;2022-11-20T15:51:18;2.20;;;1.67;;
21494;SDS011;10909;53.590;10.054;2022-11-20T15:53:39;2.00;;;1.53;;
21494;SDS011;10909;53.590;10.054;2022-11-20T15:56:13;1.80;;;1.67;;
21494;SDS011;10909;53.590;10.054;2022-11-20T15:58:51;1.90;;;1.57;;
21494;SDS011;10909;53.590;10.054;2022-11-20T16:01:19;1.70;;;1.60;;
21494;SDS011;10909;53.590;10.054;2022-11-20T16:03:48;1.83;;;1.40;;
21494;SDS011;10909;53.590;10.054;2022-11-20T16:06:15;1.83;;;1.40;;
21494;SDS011;10909;53.590;10.054;2022-11-20T16:08:46;1.83;;;1.63;;
21494;SDS011;10909;53.590;10.054;2022-11-20T16:11:18;1.90;;;1.67;;
21494;SDS011;10909;53.590;10.054;2022-11-20T16:13:50;1.30;;;1.20;;
21494;SDS011;10909;53.590;10.054;2022-11-20T16:16:35;2.10;;;1.70;;
21494;SDS011;10909;53.590;10.054;2022-11-20T16:19:02;3.20;;;1.53;;
21494;SDS011;10909;53.590;10.054;2022-11-20T16:21:29;1.67;;;1.57;;
21494;SDS011;10909;53.590;10.054;2022-11-20T16:24:02;1.57;;;1.47;;
21494;SDS011;10909;53.590;10.054;2022-11-20T16:26:29;1.53;;;1.43;;
21494;SDS011;10909;53.590;10.054;2022-11-20T16:29:01;1.60;;;1.50;;
21494;SDS011;10909;53.590;10.054;2022-11-20T16:31:29;1.40;;;1.30;;
21494;SDS011;10909;53.590;10.054;2022-11-20T16:33:58;3.23;;;1.50;;
21494;SDS011;10909;53.590;10.054;2022-11-20T16:36:27;1.77;;;1.67;;
21494;SDS011;10909;53.590;10.054;2022-11-20T16:39:08;2.33;;;1.30;;
21494;SDS011;10909;53.590;10.054;2022-11-20T16:41:39;1.97;;;1.50;;